Time;durP1;ratioP1;P1;durP2;ratioP2;P2;SDS_P1;SDS_P2;PMS_P1;PMS_P2;Temp;Humidity;BMP_temperature;BMP_pressure;BME280_temperature;BME280_humidity;BME280_pressure;Samples;Min_cycle;Max_cycle;Signal;HPM_P1;HPM_P2
2021/04/22 00:00:18;;;;;;;12.10;9.30;;;;;;;9.80;64.93;99634.78;4283299;33;34732;-84
2021/04/22 00:02:51;;;;;;;13.10;9.10;;;;;;;9.96;64.48;99633.78;4284454;33;34014;-94
2021/04/22 00:05:30;;;;;;;19.55;11.43;;;;;;;9.63;65.76;99634.94;4272636;33;33791;-94
2021/04/22 00:08:06;;;;;;;11.25;9.05;;;;;;;9.70;65.26;99626.94;4283334;33;34659;-94
2021/04/22 00:10:47;;;;;;;14.50;11.12;;;;;;;9.58;66.17;99620.31;4274988;33;34838;-94
2021/04/22 00:13:22;;;;;;;15.35;9.55;;;;;;;10.14;64.49;99628.00;4283114;33;34737;-84
2021/04/22 00:15:55;;;;;;;12.32;8.55;;;;;;;10.07;64.78;99626.03;4285589;33;35431;-93
2021/04/22 00:18:29;;;;;;;14.13;10.32;;;;;;;9.77;65.92;99624.34;4284403;33;33717;-84
2021/04/22 00:21:02;;;;;;;12.80;9.88;;;;;;;10.10;64.98;99630.22;4271432;33;35871;-95
2021/04/22 00:23:34;;;;;;;11.93;9.25;;;;;;;10.31;64.65;99631.31;4283485;33;33656;-84
2021/04/22 00:26:07;;;;;;;13.75;9.73;;;;;;;10.16;65.32;99636.72;4288084;33;33326;-94
2021/04/22 00:28:39;;;;;;;12.90;9.68;;;;;;;10.05;65.76;99632.66;4281983;33;33761;-94
2021/04/22 00:31:11;;;;;;;13.88;10.55;;;;;;;10.00;66.10;99626.94;4280047;33;33658;-95
2021/04/22 00:33:44;;;;;;;13.68;9.82;;;;;;;10.10;66.07;99623.97;4268648;33;35269;-84
2021/04/22 00:36:16;;;;;;;11.98;9.40;;;;;;;10.44;64.72;99625.28;4280146;33;34123;-93
2021/04/22 00:38:49;;;;;;;13.77;9.25;;;;;;;10.27;65.26;99620.06;4291899;33;33613;-84
2021/04/22 00:41:21;;;;;;;10.68;9.02;;;;;;;10.35;65.21;99622.66;4279348;33;34417;-93
2021/04/22 00:43:54;;;;;;;14.82;9.25;;;;;;;10.02;66.32;99623.03;4291298;33;33869;-84
2021/04/22 00:46:26;;;;;;;13.77;10.05;;;;;;;10.19;66.02;99618.28;4303603;33;33128;-94
2021/04/22 00:48:58;;;;;;;10.40;8.38;;;;;;;10.36;65.72;99613.56;4290561;33;35428;-85
2021/04/22 00:51:30;;;;;;;14.75;9.88;;;;;;;10.64;65.06;99610.13;4281037;33;33818;-84
2021/04/22 00:54:04;;;;;;;11.00;7.45;;;;;;;9.72;68.59;99592.53;4268197;33;34435;-93
2021/04/22 00:56:36;;;;;;;8.95;6.62;;;;;;;9.79;66.69;99579.09;4268753;33;34376;-91
2021/04/22 00:59:09;;;;;;;11.23;7.60;;;;;;;10.42;64.15;99580.38;4304075;33;33715;-86
2021/04/22 01:01:42;;;;;;;11.45;8.25;;;;;;;10.66;64.54;99569.38;4278387;33;34320;-92
2021/04/22 01:04:17;;;;;;;11.02;7.47;;;;;;;11.28;65.09;99565.16;4278044;33;32801;-87
2021/04/22 01:06:50;;;;;;;13.40;8.27;;;;;;;11.56;63.44;99564.34;4290393;33;34336;-94
2021/04/22 01:09:25;;;;;;;10.23;7.37;;;;;;;11.88;61.76;99572.84;4249138;33;32930;-86
2021/04/22 01:11:58;;;;;;;13.38;8.32;;;;;;;11.58;62.28;99589.31;4276916;33;34860;-85
2021/04/22 01:14:31;;;;;;;12.85;7.93;;;;;;;11.21;62.91;99584.06;4280215;33;34425;-85
2021/04/22 01:17:04;;;;;;;10.50;8.20;;;;;;;11.30;62.76;99599.13;4291608;33;33176;-86
2021/04/22 01:19:36;;;;;;;11.52;8.10;;;;;;;11.27;63.75;99591.41;4304089;33;33720;-95
2021/04/22 01:22:09;;;;;;;12.60;8.55;;;;;;;11.42;63.31;99602.13;4277105;33;34488;-96
2021/04/22 01:24:58;;;;;;;9.10;7.53;;;;;;;11.10;63.78;99615.16;4232776;33;35013;-92
2021/04/22 01:27:31;;;;;;;10.80;7.70;;;;;;;11.28;63.13;99605.75;4245633;33;34021;-95
2021/04/22 01:30:16;;;;;;;10.60;7.68;;;;;;;10.87;63.85;99615.38;4249305;33;34239;-87
2021/04/22 01:32:49;;;;;;;12.57;8.55;;;;;;;10.96;64.38;99607.97;4233659;33;35210;-94
2021/04/22 01:36:08;;;;;;;10.63;7.47;;;;;;;10.68;65.29;99610.59;4236024;33;35043;-88
2021/04/22 01:38:40;;;;;;;12.95;8.95;;;;;;;10.45;65.91;99600.78;4235201;33;35201;-86
2021/04/22 01:41:13;;;;;;;12.93;8.57;;;;;;;11.02;64.17;99609.91;4251825;33;34641;-87
2021/04/22 01:43:46;;;;;;;12.02;8.07;;;;;;;11.09;64.17;99594.56;4258595;33;34669;-94
2021/04/22 01:46:20;;;;;;;11.63;8.50;;;;;;;11.19;64.04;99599.63;4246153;33;34467;-84
2021/04/22 01:48:52;;;;;;;11.05;8.20;;;;;;;10.97;64.71;99596.09;4246368;33;34161;-84
2021/04/22 01:51:25;;;;;;;9.73;7.85;;;;;;;10.82;64.98;99601.56;4235367;33;33680;-85
2021/04/22 01:53:57;;;;;;;11.35;8.07;;;;;;;10.57;65.57;99593.00;4247107;33;34843;-83
2021/04/22 01:56:30;;;;;;;12.07;9.43;;;;;;;10.75;64.99;99590.69;4235422;33;33605;-96
2021/04/22 01:59:02;;;;;;;10.00;7.95;;;;;;;10.76;65.15;99597.78;4235228;33;34450;-84
2021/04/22 02:01:47;;;;;;;14.02;9.20;;;;;;;10.62;64.83;99601.38;4235130;33;34215;-96
2021/04/22 02:04:21;;;;;;;9.93;8.10;;;;;;;10.76;64.51;99599.63;4235360;33;33318;-96
2021/04/22 02:06:53;;;;;;;12.43;8.57;;;;;;;10.23;66.57;99599.84;4240564;33;34413;-84
2021/04/22 02:09:26;;;;;;;12.48;9.45;;;;;;;10.52;65.83;99598.13;4248950;33;33202;-96
2021/04/22 02:12:00;;;;;;;12.27;9.52;;;;;;;10.38;66.05;99591.75;4246704;33;34054;-96
2021/04/22 02:14:33;;;;;;;15.30;10.30;;;;;;;10.12;67.24;99597.63;4250094;33;32866;-96
2021/04/22 02:17:05;;;;;;;13.02;9.63;;;;;;;10.31;66.57;99598.91;4234832;33;33865;-84
2021/04/22 02:19:37;;;;;;;13.25;9.82;;;;;;;10.49;66.54;99601.22;4234604;33;34785;-84
2021/04/22 02:22:10;;;;;;;14.82;9.93;;;;;;;10.29;66.80;99593.69;4235549;33;34139;-87
2021/04/22 02:24:42;;;;;;;12.77;10.15;;;;;;;10.37;67.08;99595.47;4258547;33;35207;-86
2021/04/22 02:27:15;;;;;;;13.75;9.65;;;;;;;9.88;69.32;99596.91;4271789;33;36941;-84
2021/04/22 02:29:48;;;;;;;12.65;9.98;;;;;;;10.28;67.63;99594.69;4249611;33;35052;-96
2021/04/22 02:32:21;;;;;;;13.15;9.68;;;;;;;10.45;67.08;99594.50;4259323;33;35474;-96
2021/04/22 02:34:53;;;;;;;13.70;10.85;;;;;;;10.67;66.49;99596.22;4259723;33;34555;-96
2021/04/22 02:37:31;;;;;;;15.02;9.88;;;;;;;10.67;66.27;99588.09;4260791;33;33920;-84
2021/04/22 02:40:06;;;;;;;15.75;8.88;;;;;;;10.34;67.22;99593.16;4236515;33;34113;-84
2021/04/22 02:42:39;;;;;;;12.98;10.07;;;;;;;10.48;67.05;99591.44;4247339;33;33626;-84
2021/04/22 02:45:17;;;;;;;13.70;9.70;;;;;;;10.06;68.39;99583.84;4248182;33;34529;-84
2021/04/22 02:47:50;;;;;;;13.13;9.82;;;;;;;10.19;67.92;99587.75;4260154;33;34876;-96
2021/04/22 02:50:24;;;;;;;13.20;9.18;;;;;;;10.23;68.04;99587.16;4272045;33;33873;-96
2021/04/22 02:52:57;;;;;;;13.38;9.48;;;;;;;10.12;68.02;99584.13;4259420;33;34245;-84
2021/04/22 02:55:30;;;;;;;13.95;10.32;;;;;;;10.02;68.40;99585.25;4260819;33;33625;-84
2021/04/22 02:58:03;;;;;;;15.75;10.63;;;;;;;10.06;68.25;99586.56;4247535;33;34201;-84
2021/04/22 03:00:36;;;;;;;18.10;10.50;;;;;;;10.21;67.54;99583.84;4248489;33;34417;-96
2021/04/22 03:03:09;;;;;;;11.90;8.75;;;;;;;10.29;66.71;99580.19;4248067;33;33982;-96
2021/04/22 03:05:41;;;;;;;12.57;8.85;;;;;;;9.94;67.95;99593.47;4248487;33;35057;-96
2021/04/22 03:08:14;;;;;;;15.88;10.63;;;;;;;9.93;67.46;99585.53;4249422;33;33614;-96
2021/04/22 03:10:46;;;;;;;12.65;9.52;;;;;;;9.74;68.39;99578.84;4247406;33;34513;-93
2021/04/22 03:13:19;;;;;;;13.10;9.88;;;;;;;9.96;67.21;99575.19;4258925;33;34359;-84
2021/04/22 03:15:51;;;;;;;12.15;9.45;;;;;;;9.76;67.89;99568.69;4271031;33;34211;-95
2021/04/22 03:18:24;;;;;;;13.13;9.95;;;;;;;9.75;67.44;99573.25;4247905;33;34676;-84
2021/04/22 03:20:56;;;;;;;13.25;10.00;;;;;;;9.80;67.22;99580.78;4245307;33;34347;-95
2021/04/22 03:23:34;;;;;;;18.45;10.23;;;;;;;9.42;67.67;99587.09;4248972;33;33740;-95
2021/04/22 03:26:06;;;;;;;15.10;9.40;;;;;;;9.11;69.20;99595.31;4273095;33;33846;-96
2021/04/22 03:28:39;;;;;;;11.30;8.40;;;;;;;9.34;68.67;99584.47;4260732;33;36468;-84
2021/04/22 03:31:11;;;;;;;13.10;9.85;;;;;;;9.26;68.08;99593.47;4272783;33;35648;-96
2021/04/22 03:33:44;;;;;;;14.43;8.23;;;;;;;9.26;68.13;99596.16;4250333;33;33358;-84
2021/04/22 03:36:16;;;;;;;13.90;8.82;;;;;;;8.81;69.19;99596.00;4250094;33;34467;-96
2021/04/22 03:38:49;;;;;;;16.52;9.25;;;;;;;8.94;68.92;99597.31;4248469;33;34694;-84
2021/04/22 03:41:22;;;;;;;14.07;8.77;;;;;;;8.84;69.11;99592.97;4249856;33;34218;-96
2021/04/22 03:43:55;;;;;;;11.00;8.10;;;;;;;9.21;67.56;99586.94;4260354;33;32926;-96
2021/04/22 03:46:28;;;;;;;11.60;8.43;;;;;;;8.99;67.84;99595.72;4260386;33;34744;-84
2021/04/22 03:49:00;;;;;;;13.32;8.10;;;;;;;9.07;66.79;99604.75;4260066;33;34734;-84
2021/04/22 03:51:33;;;;;;;10.57;8.23;;;;;;;8.91;67.24;99598.50;4260196;33;33177;-96
2021/04/22 03:54:06;;;;;;;13.45;9.00;;;;;;;8.79;67.69;99599.94;4260119;33;34435;-84
2021/04/22 03:56:38;;;;;;;11.88;9.18;;;;;;;8.86;67.31;99616.22;4260549;33;34361;-84
2021/04/22 03:59:11;;;;;;;8.90;7.45;;;;;;;8.55;69.75;99612.53;4262084;33;34879;-96
2021/04/22 04:01:44;;;;;;;13.40;8.63;;;;;;;8.32;69.77;99609.75;4260914;33;33534;-96
2021/04/22 04:04:17;;;;;;;9.82;7.28;;;;;;;8.76;68.21;99605.69;4273078;33;34027;-96
2021/04/22 04:06:49;;;;;;;13.30;8.07;;;;;;;8.85;67.55;99615.38;4249336;33;36282;-83
2021/04/22 04:09:22;;;;;;;11.55;8.02;;;;;;;8.05;70.37;99601.12;4260275;33;33018;-84
2021/04/22 04:11:54;;;;;;;13.60;8.45;;;;;;;8.40;69.17;99600.81;4260421;33;33826;-96
2021/04/22 04:14:27;;;;;;;12.60;8.05;;;;;;;8.48;68.98;99596.22;4261978;33;34335;-96
2021/04/22 04:16:59;;;;;;;9.00;6.70;;;;;;;8.74;67.82;99602.31;4249612;33;33577;-84
2021/04/22 04:19:31;;;;;;;11.30;7.62;;;;;;;8.72;67.71;99615.13;4250578;33;34485;-84
2021/04/22 04:22:04;;;;;;;12.32;8.10;;;;;;;8.65;67.32;99610.47;4249193;33;36184;-96
2021/04/22 04:24:37;;;;;;;8.80;7.32;;;;;;;8.43;68.55;99612.06;4258701;33;35220;-96
2021/04/22 04:27:15;;;;;;;11.88;8.00;;;;;;;8.80;67.28;99617.75;4262368;33;33465;-96
2021/04/22 04:29:49;;;;;;;10.30;7.35;;;;;;;8.82;67.48;99621.97;4264391;33;33703;-96
2021/04/22 04:32:21;;;;;;;10.30;7.60;;;;;;;9.04;66.37;99629.38;4273662;33;33737;-96
2021/04/22 04:34:57;;;;;;;12.07;7.53;;;;;;;8.83;67.61;99629.03;4251295;33;34012;-96
2021/04/22 04:37:31;;;;;;;12.30;8.07;;;;;;;8.95;67.49;99629.47;4250777;33;35139;-96
2021/04/22 04:40:05;;;;;;;12.40;8.25;;;;;;;9.00;67.61;99635.13;4260479;33;34322;-96
2021/04/22 04:42:38;;;;;;;13.40;9.23;;;;;;;9.07;68.02;99637.13;4272047;33;32503;-84
2021/04/22 04:45:17;;;;;;;17.15;10.40;;;;;;;9.17;68.27;99641.22;4271674;33;33570;-85
2021/04/22 04:47:49;;;;;;;11.30;8.18;;;;;;;9.35;69.43;99654.41;4238093;33;34967;-84
2021/04/22 04:50:22;;;;;;;11.00;8.93;;;;;;;9.49;68.98;99654.62;4250538;33;34184;-96
2021/04/22 04:52:55;;;;;;;12.02;8.55;;;;;;;9.68;68.57;99662.19;4250230;33;33464;-84
2021/04/22 04:55:27;;;;;;;11.43;8.68;;;;;;;9.87;68.35;99662.72;4271897;33;33531;-84
2021/04/22 04:58:00;;;;;;;21.65;9.15;;;;;;;10.28;67.79;99664.09;4249228;33;35243;-96
2021/04/22 05:00:33;;;;;;;11.82;8.80;;;;;;;10.43;68.05;99662.25;4237871;33;35126;-84
2021/04/22 05:03:05;;;;;;;13.25;8.88;;;;;;;10.71;67.52;99665.09;4260588;33;33913;-96
2021/04/22 05:05:38;;;;;;;12.32;8.98;;;;;;;10.76;67.56;99662.66;4236886;33;35840;-95
2021/04/22 05:08:11;;;;;;;9.80;8.02;;;;;;;10.94;67.40;99664.09;4249308;33;34277;-96
2021/04/22 05:10:43;;;;;;;13.07;9.90;;;;;;;11.13;67.42;99674.28;4248262;33;31058;-84
2021/04/22 05:13:16;;;;;;;14.68;9.15;;;;;;;11.31;66.24;99671.13;4249474;33;34077;-90
2021/04/22 05:15:49;;;;;;;13.50;9.63;;;;;;;11.53;64.39;99673.81;4237296;33;32895;-85
2021/04/22 05:18:22;;;;;;;10.77;8.23;;;;;;;11.43;64.89;99679.56;4261683;33;34705;-94
2021/04/22 05:20:55;;;;;;;12.88;9.02;;;;;;;11.89;63.30;99672.84;4248306;33;34173;-94
2021/04/22 05:23:28;;;;;;;14.48;9.45;;;;;;;12.10;62.73;99671.13;4243977;33;34471;-83
2021/04/22 05:26:00;;;;;;;13.20;8.85;;;;;;;12.45;60.56;99671.09;4249439;33;33620;-95
2021/04/22 05:28:32;;;;;;;12.75;8.40;;;;;;;12.58;60.63;99664.91;4259974;33;34432;-88
2021/04/22 05:31:05;;;;;;;12.70;8.85;;;;;;;12.47;59.87;99669.03;4248723;33;34191;-86
2021/04/22 05:34:04;;;;;;;10.95;8.15;;;;;;;12.54;59.72;99665.31;4245705;33;33819;-85
2021/04/22 05:36:37;;;;;;;14.07;9.07;;;;;;;12.80;59.14;99671.88;4246299;33;36253;-91
2021/04/22 05:39:10;;;;;;;11.48;8.13;;;;;;;13.28;57.56;99661.94;4258477;33;34972;-88
2021/04/22 05:41:43;;;;;;;12.73;8.40;;;;;;;13.31;58.02;99667.81;4259247;33;34463;-85
2021/04/22 05:44:15;;;;;;;11.43;8.30;;;;;;;13.54;56.41;99667.44;4257802;33;33400;-87
2021/04/22 05:46:48;;;;;;;15.57;7.68;;;;;;;13.28;56.79;99670.09;4246169;33;33241;-84
2021/04/22 05:49:20;;;;;;;10.45;7.87;;;;;;;13.18;56.94;99665.91;4247541;33;34139;-86
2021/04/22 05:51:53;;;;;;;12.05;8.50;;;;;;;12.88;58.51;99668.97;4260025;33;33592;-94
2021/04/22 05:54:25;;;;;;;11.20;8.32;;;;;;;13.15;58.59;99660.91;4249225;33;34295;-94
2021/04/22 05:56:58;;;;;;;12.00;8.57;;;;;;;13.41;56.98;99667.44;4247420;33;34109;-84
2021/04/22 05:59:31;;;;;;;11.18;8.27;;;;;;;13.39;57.86;99664.09;4251773;33;33708;-89
2021/04/22 06:02:03;;;;;;;12.80;8.23;;;;;;;13.36;56.75;99661.78;4258225;33;33792;-84
2021/04/22 06:04:36;;;;;;;12.43;8.13;;;;;;;13.10;58.27;99663.41;4246954;33;33276;-85
2021/04/22 06:07:09;;;;;;;12.27;8.60;;;;;;;13.16;57.87;99672.56;4246455;33;37447;-88
2021/04/22 06:09:42;;;;;;;11.60;8.65;;;;;;;13.00;58.79;99662.97;4257546;33;33556;-89
2021/04/22 06:12:15;;;;;;;14.80;8.30;;;;;;;13.34;58.80;99674.75;4257963;33;33569;-89
2021/04/22 06:14:47;;;;;;;13.32;8.98;;;;;;;13.81;58.17;99675.56;4258076;33;33194;-85
2021/04/22 06:17:25;;;;;;;13.05;8.38;;;;;;;14.20;56.69;99668.41;4258527;33;33352;-96
2021/04/22 06:20:02;;;;;;;12.57;8.53;;;;;;;14.22;54.53;99668.19;4256880;33;35588;-91
2021/04/22 06:22:34;;;;;;;17.55;8.98;;;;;;;14.21;55.10;99680.13;4257755;33;33671;-89
2021/04/22 06:25:08;;;;;;;14.35;8.80;;;;;;;14.16;55.44;99678.06;4268451;33;33100;-91
2021/04/22 06:27:41;;;;;;;11.75;9.27;;;;;;;14.09;56.85;99677.22;4245287;33;35796;-93
2021/04/22 06:30:16;;;;;;;13.77;9.43;;;;;;;14.24;55.58;99683.25;4258446;33;34613;-89
2021/04/22 06:32:48;;;;;;;13.13;9.85;;;;;;;14.30;54.62;99678.84;4257990;33;35128;-90
2021/04/22 06:35:23;;;;;;;14.40;9.30;;;;;;;13.93;56.89;99684.75;4234074;33;33645;-89
2021/04/22 06:37:58;;;;;;;14.75;9.38;;;;;;;14.29;55.61;99688.03;4259944;33;35412;-96
2021/04/22 06:40:31;;;;;;;14.10;9.00;;;;;;;14.20;54.49;99683.88;4259332;33;33633;-85
2021/04/22 06:43:12;;;;;;;10.95;8.15;;;;;;;14.19;54.67;99683.06;4236781;33;33918;-85
2021/04/22 06:45:58;;;;;;;12.95;8.50;;;;;;;14.10;55.07;99690.59;4247908;33;33130;-96
2021/04/22 06:48:33;;;;;;;11.95;8.68;;;;;;;13.90;56.74;99692.50;4255108;33;33705;-87
2021/04/22 06:51:08;;;;;;;12.90;9.45;;;;;;;14.08;54.48;99689.13;4257667;33;33774;-96
2021/04/22 06:53:41;;;;;;;13.80;8.25;;;;;;;14.08;53.95;99681.81;4259802;33;35165;-86
2021/04/22 06:56:18;;;;;;;14.98;9.68;;;;;;;14.11;54.34;99683.28;4258959;33;33193;-88
2021/04/22 06:58:54;;;;;;;13.93;8.30;;;;;;;14.15;54.99;99684.53;4246487;33;34736;-92
2021/04/22 07:01:36;;;;;;;11.98;9.25;;;;;;;14.13;54.42;99686.59;4247028;33;36397;-96
2021/04/22 07:04:29;;;;;;;13.18;8.23;;;;;;;14.48;54.37;99680.87;4253160;33;33591;-95
2021/04/22 07:07:03;;;;;;;14.93;8.93;;;;;;;14.55;54.00;99683.56;4243437;33;528304;-89
2021/04/22 07:09:39;;;;;;;13.85;9.63;;;;;;;14.46;53.65;99682.97;4268886;33;33661;-96
2021/04/22 07:12:15;;;;;;;14.65;9.32;;;;;;;14.46;54.28;99686.53;4247505;33;33767;-93
2021/04/22 07:15:17;;;;;;;12.35;8.75;;;;;;;14.43;54.03;99688.81;4254710;33;34878;-95
2021/04/22 07:17:52;;;;;;;12.15;8.65;;;;;;;14.33;54.36;99685.75;4257879;33;34113;-87
2021/04/22 07:20:34;;;;;;;14.85;8.75;;;;;;;14.62;54.82;99684.41;4258845;33;33707;-88
2021/04/22 07:23:14;;;;;;;13.65;8.77;;;;;;;14.82;54.79;99692.50;4256629;33;34794;-86
2021/04/22 07:25:57;;;;;;;13.57;9.38;;;;;;;14.85;54.14;99697.50;4246066;33;37439;-96
2021/04/22 07:28:39;;;;;;;11.95;8.40;;;;;;;14.80;53.96;99700.84;4243484;33;33118;-92
2021/04/22 07:31:17;;;;;;;14.23;9.68;;;;;;;15.31;53.57;99693.69;4248879;33;33527;-86
2021/04/22 07:33:54;;;;;;;13.85;9.57;;;;;;;15.40;52.46;99694.22;4243509;33;34703;-86
2021/04/22 07:36:27;;;;;;;12.32;9.82;;;;;;;15.64;52.29;99695.34;4239122;33;34524;-87
2021/04/22 07:39:00;;;;;;;15.52;9.65;;;;;;;15.74;50.32;99699.44;4238014;33;33691;-88
2021/04/22 07:41:55;;;;;;;12.95;8.93;;;;;;;15.91;52.39;99706.00;4275623;27;33447;-96
2021/04/22 07:44:48;;;;;;;13.93;9.13;;;;;;;15.55;51.73;99696.63;4253837;33;32257;-96
2021/04/22 07:47:35;;;;;;;11.82;9.38;;;;;;;15.77;50.78;99699.00;4240243;33;33132;-96
2021/04/22 07:50:19;;;;;;;11.20;9.13;;;;;;;15.39;53.25;99708.06;4241707;33;31656;-96
2021/04/22 07:53:13;;;;;;;13.27;8.70;;;;;;;16.01;50.99;99711.78;4236373;33;34453;-92
2021/04/22 07:55:54;;;;;;;11.27;8.80;;;;;;;16.40;50.65;99704.28;4242145;33;34373;-96
2021/04/22 07:58:38;;;;;;;14.90;9.68;;;;;;;16.51;50.18;99704.56;4240654;33;33301;-96
2021/04/22 08:01:48;;;;;;;13.02;10.20;;;;;;;16.90;48.58;99686.06;4221359;33;34461;-96
2021/04/22 08:04:49;;;;;;;12.98;9.30;;;;;;;17.45;49.36;99699.59;4232470;33;34248;-95
2021/04/22 08:07:25;;;;;;;13.35;9.23;;;;;;;18.13;46.33;99693.88;4202812;33;34431;-96
2021/04/22 08:10:30;;;;;;;13.68;9.77;;;;;;;18.43;46.45;99699.19;4229081;33;34152;-94
2021/04/22 08:13:06;;;;;;;11.68;8.57;;;;;;;18.67;45.25;99693.69;4203785;34;33771;-96
2021/04/22 08:15:45;;;;;;;16.30;9.63;;;;;;;18.20;44.61;99693.75;4206460;33;35302;-94
2021/04/22 08:18:33;;;;;;;13.90;10.05;;;;;;;18.15;46.19;99689.00;4246040;33;33445;-96
2021/04/22 08:21:10;;;;;;;11.35;8.82;;;;;;;18.27;44.36;99689.81;4244039;33;34179;-96
2021/04/22 08:23:50;;;;;;;12.48;10.15;;;;;;;17.76;46.96;99696.78;4244773;33;34614;-96
2021/04/22 08:26:32;;;;;;;10.98;9.60;;;;;;;18.12;46.62;99693.03;4251976;33;35487;-96
2021/04/22 08:29:17;;;;;;;11.85;9.27;;;;;;;18.77;44.22;99695.78;4234190;33;32895;-96
2021/04/22 08:31:50;;;;;;;13.35;9.02;;;;;;;18.98;42.99;99689.69;4255593;33;34287;-96
2021/04/22 08:34:42;;;;;;;12.02;8.90;;;;;;;19.32;43.29;99688.91;4253590;33;32494;-95
2021/04/22 08:37:36;;;;;;;12.65;9.55;;;;;;;19.75;42.01;99687.47;4260828;33;34976;-96
2021/04/22 08:40:35;;;;;;;14.15;9.55;;;;;;;19.95;40.99;99691.66;4258671;33;34721;-96
2021/04/22 08:43:19;;;;;;;14.50;9.10;;;;;;;20.26;40.62;99699.25;4264211;33;33454;-96
2021/04/22 08:46:23;;;;;;;14.13;10.27;;;;;;;20.58;41.84;99692.25;4256229;33;32145;-96
2021/04/22 08:49:09;;;;;;;11.45;9.93;;;;;;;20.66;39.75;99696.50;4278996;33;34400;-96
2021/04/22 08:52:29;;;;;;;13.52;10.75;;;;;;;20.49;40.41;99696.53;4237995;33;33393;-96
2021/04/22 08:55:36;;;;;;;13.07;10.18;;;;;;;20.15;39.41;99696.59;4228207;33;34736;-96
2021/04/22 08:58:22;;;;;;;13.07;10.50;;;;;;;20.44;40.04;99689.06;4229537;33;31944;-96
2021/04/22 09:01:22;;;;;;;;;;;;;;;20.33;41.55;99687.25;4271244;33;34099;-96
2021/04/22 09:05:01;;;;;;;13.23;11.82;;;;;;;20.02;41.69;99692.31;625129;28;20286;-95
2021/04/22 09:07:43;;;;;;;15.80;12.37;;;;;;;20.74;43.17;99687.81;4263521;33;31306;-96
2021/04/22 09:10:24;;;;;;;12.52;11.23;;;;;;;20.87;40.59;99692.94;4270024;33;33627;-96
2021/04/22 09:13:19;;;;;;;12.63;10.02;;;;;;;21.30;38.94;99682.94;4252175;33;32296;-96
2021/04/22 09:16:20;;;;;;;15.70;9.75;;;;;;;21.12;37.63;99688.78;4273013;33;34202;-96
2021/04/22 09:19:32;;;;;;;15.27;10.15;;;;;;;20.47;38.55;99691.28;4247665;33;34434;-96
2021/04/22 09:22:41;;;;;;;13.00;8.40;;;;;;;20.44;38.00;99684.38;4258433;33;33633;-96
2021/04/22 09:28:55;;;;;;;12.13;7.95;;;;;;;20.49;35.43;99699.28;4274054;33;34165;-96
2021/04/22 09:31:39;;;;;;;13.55;8.80;;;;;;;20.04;36.48;99690.94;4269077;33;34118;-96
2021/04/22 09:34:23;;;;;;;10.13;8.98;;;;;;;20.53;37.27;99686.72;4264821;33;34281;-96
2021/04/22 09:36:57;;;;;;;15.27;9.73;;;;;;;21.25;39.38;99677.38;4267572;33;34091;-96
2021/04/22 09:39:33;;;;;;;14.52;10.68;;;;;;;21.13;35.51;99682.22;4273736;33;34176;-96
2021/04/22 09:42:27;;;;;;;10.35;9.25;;;;;;;21.02;36.94;99684.03;4238765;33;34955;-96
2021/04/22 09:45:50;;;;;;;;;;;;;;;;;;;;;
2021/04/22 09:48:56;;;;;;;11.27;9.20;;;;;;;22.28;38.34;99671.91;4198833;34;32120;-96
2021/04/22 09:51:37;;;;;;;13.38;8.07;;;;;;;21.75;33.86;99675.41;4202517;34;34836;-96
2021/04/22 09:54:18;;;;;;;11.32;7.82;;;;;;;21.76;35.33;99676.22;4199459;34;32630;-96
2021/04/22 09:57:19;;;;;;;14.93;10.18;;;;;;;21.90;34.43;99671.94;4186782;34;33935;-96
2021/04/22 10:00:20;;;;;;;14.38;8.85;;;;;;;21.44;35.44;99672.34;4194700;34;35104;-96
2021/04/22 10:03:23;;;;;;;10.98;8.57;;;;;;;21.11;35.42;99659.69;4229386;33;34515;-96
2021/04/22 10:06:03;;;;;;;13.85;9.68;;;;;;;21.71;35.01;99662.41;4226558;33;34188;-95
2021/04/22 10:08:46;;;;;;;11.93;8.98;;;;;;;21.58;34.29;99658.22;4260690;33;35191;-94
2021/04/22 10:11:18;;;;;;;12.95;9.93;;;;;;;21.73;39.22;99654.75;4284881;33;32716;-95
2021/04/22 10:13:57;;;;;;;9.77;8.35;;;;;;;22.15;35.28;99660.25;4282504;33;33467;-95
2021/04/22 10:17:17;;;;;;;11.98;7.68;;;;;;;22.74;33.26;99658.37;4272766;33;36368;-91
2021/04/22 10:20:03;;;;;;;10.15;8.43;;;;;;;22.27;33.56;99660.03;4286539;33;34737;-88
2021/04/22 10:22:41;;;;;;;9.93;6.07;;;;;;;22.35;33.40;99650.47;4274753;33;33527;-95
2021/04/22 10:25:27;;;;;;;8.82;6.18;;;;;;;22.62;31.90;99653.09;4276235;33;33620;-96
2021/04/22 10:28:13;;;;;;;8.38;6.43;;;;;;;21.99;30.53;99653.84;4286326;33;32473;-96
2021/04/22 10:30:48;;;;;;;17.15;8.32;;;;;;;22.32;31.59;99657.37;4287884;33;32821;-96
2021/04/22 10:33:39;;;;;;;9.07;6.03;;;;;;;22.58;31.85;99651.97;4269322;33;33469;-96
2021/04/22 10:36:19;;;;;;;10.50;6.80;;;;;;;22.07;32.06;99649.75;4247274;33;34194;-94
2021/04/22 10:38:56;;;;;;;9.07;6.28;;;;;;;21.15;34.26;99650.66;4236213;33;33992;-93
2021/04/22 10:41:36;;;;;;;7.43;5.70;;;;;;;22.32;30.30;99646.34;4250848;33;33663;-94
2021/04/22 10:44:13;;;;;;;10.43;6.47;;;;;;;23.18;30.13;99640.59;4261276;33;34250;-94
2021/04/22 10:46:52;;;;;;;10.80;8.40;;;;;;;23.73;30.79;99647.22;4235507;33;35385;-94
2021/04/22 10:49:32;;;;;;;14.75;9.95;;;;;;;23.13;30.09;99637.81;4251433;33;33010;-95
2021/04/22 10:52:08;;;;;;;7.03;4.85;;;;;;;23.75;32.75;99645.00;4257986;33;34552;-96
2021/04/22 10:54:50;;;;;;;6.22;5.00;;;;;;;24.06;30.57;99645.00;4255312;33;33736;-96
2021/04/22 10:57:46;;;;;;;7.43;5.00;;;;;;;22.88;30.23;99640.22;4262434;33;34031;-94
2021/04/22 11:00:28;;;;;;;14.43;6.43;;;;;;;22.55;29.98;99641.50;4250712;33;32665;-95
2021/04/22 11:03:04;;;;;;;10.73;6.47;;;;;;;22.35;32.58;99645.81;4247199;33;33250;-94
2021/04/22 11:05:53;;;;;;;8.82;6.50;;;;;;;21.42;32.99;99657.19;4254228;33;34721;-91
2021/04/22 11:08:36;;;;;;;8.07;6.70;;;;;;;20.24;33.70;99646.53;4253477;33;34408;-85
2021/04/22 11:11:35;;;;;;;10.25;7.20;;;;;;;19.78;37.44;99647.78;4258043;33;33970;-95
2021/04/22 11:14:16;;;;;;;8.13;6.20;;;;;;;19.02;39.30;99647.00;4255858;33;35522;-94
2021/04/22 11:16:52;;;;;;;6.28;3.87;;;;;;;18.89;38.89;99641.84;4253691;33;34314;-92
2021/04/22 11:19:33;;;;;;;11.80;4.07;;;;;;;19.07;37.62;99632.56;4244279;33;36316;-89
2021/04/22 11:22:23;;;;;;;4.70;3.75;;;;;;;19.43;37.25;99638.72;4243377;33;33488;-86
2021/04/22 11:25:04;;;;;;;5.28;2.92;;;;;;;19.16;39.10;99636.59;4263361;33;32702;-94
2021/04/22 11:27:51;;;;;;;6.20;2.92;;;;;;;18.82;38.39;99631.00;4252010;33;34801;-95
2021/04/22 11:30:35;;;;;;;4.55;3.00;;;;;;;18.62;40.53;99622.41;4245719;33;33807;-92
2021/04/22 11:33:08;;;;;;;5.07;3.47;;;;;;;18.83;38.00;99626.34;4263720;33;34198;-94
2021/04/22 11:35:53;;;;;;;3.65;2.83;;;;;;;17.79;39.11;99622.53;4240511;33;33175;-94
2021/04/22 11:38:26;;;;;;;5.25;3.12;;;;;;;18.35;37.74;99614.72;4244372;33;34113;-86
2021/04/22 11:41:06;;;;;;;4.78;3.40;;;;;;;19.01;37.48;99611.66;4242877;33;35505;-94
2021/04/22 11:43:39;;;;;;;3.65;3.08;;;;;;;20.11;35.04;99608.50;4250716;33;33539;-94
2021/04/22 11:46:16;;;;;;;5.53;4.20;;;;;;;21.40;34.06;99607.16;4256691;33;34050;-94
2021/04/22 11:48:52;;;;;;;5.28;3.60;;;;;;;21.71;31.82;99597.25;4262218;33;34085;-85
2021/04/22 11:51:42;;;;;;;7.75;2.90;;;;;;;21.54;31.73;99591.09;4256889;33;33786;-93
2021/04/22 11:54:38;;;;;;;5.00;3.55;;;;;;;22.68;29.58;99590.56;4257579;33;34032;-85
2021/04/22 11:57:15;;;;;;;7.15;4.60;;;;;;;22.10;27.11;99593.38;4256783;33;34011;-93
2021/04/22 11:59:57;;;;;;;5.25;4.15;;;;;;;21.66;30.70;99591.72;4255926;33;32775;-94
2021/04/22 12:02:57;;;;;;;8.07;5.05;;;;;;;22.41;29.04;99594.38;4256142;33;34467;-89
2021/04/22 12:05:32;;;;;;;5.82;5.18;;;;;;;23.18;29.38;99590.97;4266470;33;34892;-84
2021/04/22 12:08:09;;;;;;;10.60;5.85;;;;;;;22.78;29.03;99587.03;4246615;33;33967;-84
2021/04/22 12:11:28;;;;;;;7.53;5.37;;;;;;;22.37;29.82;99577.53;4270583;33;34751;-94
2021/04/22 12:14:13;;;;;;;8.60;6.50;;;;;;;22.84;29.51;99572.16;4273382;33;32758;-92
2021/04/22 12:17:27;;;;;;;9.93;6.95;;;;;;;21.55;31.36;99577.06;4267902;33;36883;-84
2021/04/22 12:20:06;;;;;;;9.98;6.97;;;;;;;22.89;29.78;99588.72;4253386;33;33137;-86
2021/04/22 12:22:45;;;;;;;10.07;7.43;;;;;;;21.69;32.22;99577.44;4270797;33;33450;-93
2021/04/22 12:25:20;;;;;;;10.95;7.62;;;;;;;22.16;32.32;99565.59;4257629;33;34057;-90
2021/04/22 12:27:57;;;;;;;13.10;7.75;;;;;;;21.26;32.60;99558.13;4269002;33;32376;-96